sensor_id;sensor_type;location;lat;lon;timestamp;temperature;humidity
31725;DHT22;18306;40.960;14.836;2022-12-18T00:02:16;11.40;99.90
31725;DHT22;18306;40.960;14.836;2022-12-18T00:04:43;11.40;99.90
31725;DHT22;18306;40.960;14.836;2022-12-18T00:07:10;11.40;99.90
31725;DHT22;18306;40.960;14.836;2022-12-18T00:09:37;11.30;99.90
31725;DHT22;18306;40.960;14.836;2022-12-18T00:12:04;11.20;99.90
31725;DHT22;18306;40.960;14.836;2022-12-18T00:14:31;11.10;99.90
31725;DHT22;18306;40.960;14.836;2022-12-18T00:16:58;10.80;99.90
31725;DHT22;18306;40.960;14.836;2022-12-18T00:19:27;10.70;99.90
31725;DHT22;18306;40.960;14.836;2022-12-18T00:21:54;10.60;99.90
31725;DHT22;18306;40.960;14.836;2022-12-18T00:24:21;10.60;99.90
31725;DHT22;18306;40.960;14.836;2022-12-18T00:26:48;10.80;99.90
31725;DHT22;18306;40.960;14.836;2022-12-18T00:29:15;10.90;99.90
31725;DHT22;18306;40.960;14.836;2022-12-18T00:31:44;10.90;99.90
31725;DHT22;18306;40.960;14.836;2022-12-18T00:34:12;10.80;99.90
31725;DHT22;18306;40.960;14.836;2022-12-18T00:36:41;10.90;99.90
31725;DHT22;18306;40.960;14.836;2022-12-18T00:39:11;11.00;99.90
31725;DHT22;18306;40.960;14.836;2022-12-18T00:41:39;10.80;99.90
31725;DHT22;18306;40.960;14.836;2022-12-18T00:44:25;10.70;99.90
31725;DHT22;18306;40.960;14.836;2022-12-18T00:46:52;10.70;99.90
31725;DHT22;18306;40.960;14.836;2022-12-18T00:49:20;10.70;99.90
31725;DHT22;18306;40.960;14.836;2022-12-18T00:51:47;10.80;99.90
31725;DHT22;18306;40.960;14.836;2022-12-18T00:54:16;10.80;99.90
31725;DHT22;18306;40.960;14.836;2022-12-18T00:56:43;10.90;99.90
31725;DHT22;18306;40.960;14.836;2022-12-18T00:59:11;10.90;99.90
31725;DHT22;18306;40.960;14.836;2022-12-18T01:01:39;11.00;99.90
31725;DHT22;18306;40.960;14.836;2022-12-18T01:04:06;11.00;99.90
31725;DHT22;18306;40.960;14.836;2022-12-18T01:06:35;11.00;99.90
31725;DHT22;18306;40.960;14.836;2022-12-18T01:09:03;10.90;99.90
31725;DHT22;18306;40.960;14.836;2022-12-18T01:11:30;11.00;99.90
31725;DHT22;18306;40.960;14.836;2022-12-18T01:13:57;10.80;99.90
31725;DHT22;18306;40.960;14.836;2022-12-18T01:16:24;10.60;99.90
31725;DHT22;18306;40.960;14.836;2022-12-18T01:18:52;10.70;99.90
31725;DHT22;18306;40.960;14.836;2022-12-18T01:21:21;10.70;99.90
31725;DHT22;18306;40.960;14.836;2022-12-18T01:23:54;10.80;99.90
31725;DHT22;18306;40.960;14.836;2022-12-18T01:26:21;10.70;99.90
31725;DHT22;18306;40.960;14.836;2022-12-18T01:28:48;10.60;99.90
31725;DHT22;18306;40.960;14.836;2022-12-18T01:31:19;10.60;99.90
31725;DHT22;18306;40.960;14.836;2022-12-18T01:33:47;10.50;99.90
31725;DHT22;18306;40.960;14.836;2022-12-18T01:38:45;10.40;99.90
31725;DHT22;18306;40.960;14.836;2022-12-18T01:41:14;10.50;99.90
31725;DHT22;18306;40.960;14.836;2022-12-18T01:43:55;10.50;99.90
31725;DHT22;18306;40.960;14.836;2022-12-18T01:46:25;10.60;99.90
31725;DHT22;18306;40.960;14.836;2022-12-18T01:49:01;10.50;99.90
31725;DHT22;18306;40.960;14.836;2022-12-18T01:51:29;10.50;99.90
31725;DHT22;18306;40.960;14.836;2022-12-18T01:53:58;10.50;99.90
31725;DHT22;18306;40.960;14.836;2022-12-18T01:56:26;10.50;99.90
31725;DHT22;18306;40.960;14.836;2022-12-18T01:58:58;10.50;99.90
31725;DHT22;18306;40.960;14.836;2022-12-18T02:01:29;10.50;99.90
31725;DHT22;18306;40.960;14.836;2022-12-18T02:04:18;10.30;99.90
31725;DHT22;18306;40.960;14.836;2022-12-18T02:06:47;10.30;99.90
31725;DHT22;18306;40.960;14.836;2022-12-18T02:09:26;10.30;99.90
31725;DHT22;18306;40.960;14.836;2022-12-18T02:12:17;10.10;99.90
31725;DHT22;18306;40.960;14.836;2022-12-18T02:15:03;10.00;99.90
31725;DHT22;18306;40.960;14.836;2022-12-18T02:17:42;10.00;99.90
31725;DHT22;18306;40.960;14.836;2022-12-18T02:20:20;10.10;99.90
31725;DHT22;18306;40.960;14.836;2022-12-18T02:22:55;10.00;99.90
31725;DHT22;18306;40.960;14.836;2022-12-18T02:26:01;9.90;99.90
31725;DHT22;18306;40.960;14.836;2022-12-18T02:28:34;10.10;99.90
31725;DHT22;18306;40.960;14.836;2022-12-18T02:31:09;10.10;99.90
31725;DHT22;18306;40.960;14.836;2022-12-18T02:33:39;10.20;99.90
31725;DHT22;18306;40.960;14.836;2022-12-18T02:36:11;10.30;99.90
31725;DHT22;18306;40.960;14.836;2022-12-18T02:38:40;10.30;99.90
31725;DHT22;18306;40.960;14.836;2022-12-18T02:41:13;10.40;99.90
31725;DHT22;18306;40.960;14.836;2022-12-18T02:43:49;10.50;99.90
31725;DHT22;18306;40.960;14.836;2022-12-18T02:46:32;10.50;99.90
31725;DHT22;18306;40.960;14.836;2022-12-18T02:49:19;10.40;99.90
31725;DHT22;18306;40.960;14.836;2022-12-18T03:00:56;10.10;99.90
31725;DHT22;18306;40.960;14.836;2022-12-18T03:06:14;9.80;99.90
31725;DHT22;18306;40.960;14.836;2022-12-18T03:08:47;9.70;99.90
31725;DHT22;18306;40.960;14.836;2022-12-18T03:11:17;9.80;99.90
31725;DHT22;18306;40.960;14.836;2022-12-18T03:14:07;9.80;99.90
31725;DHT22;18306;40.960;14.836;2022-12-18T03:16:36;9.70;99.90
31725;DHT22;18306;40.960;14.836;2022-12-18T03:19:11;9.70;99.90
31725;DHT22;18306;40.960;14.836;2022-12-18T03:21:45;9.60;99.90
31725;DHT22;18306;40.960;14.836;2022-12-18T03:24:17;9.50;99.90
31725;DHT22;18306;40.960;14.836;2022-12-18T03:26:50;9.60;99.90
31725;DHT22;18306;40.960;14.836;2022-12-18T03:29:54;9.60;99.90
31725;DHT22;18306;40.960;14.836;2022-12-18T03:32:28;9.50;99.90
31725;DHT22;18306;40.960;14.836;2022-12-18T03:35:03;9.50;99.90
31725;DHT22;18306;40.960;14.836;2022-12-18T03:37:34;9.50;99.90
31725;DHT22;18306;40.960;14.836;2022-12-18T03:40:02;9.40;99.90
31725;DHT22;18306;40.960;14.836;2022-12-18T03:42:50;9.50;99.90
31725;DHT22;18306;40.960;14.836;2022-12-18T03:45:44;9.60;99.90
31725;DHT22;18306;40.960;14.836;2022-12-18T03:51:35;9.60;99.90
31725;DHT22;18306;40.960;14.836;2022-12-18T03:54:05;9.40;99.90
31725;DHT22;18306;40.960;14.836;2022-12-18T03:56:46;9.40;99.90
31725;DHT22;18306;40.960;14.836;2022-12-18T03:59:16;9.40;99.90
31725;DHT22;18306;40.960;14.836;2022-12-18T04:01:48;9.10;99.90
31725;DHT22;18306;40.960;14.836;2022-12-18T04:04:18;9.60;99.90
31725;DHT22;18306;40.960;14.836;2022-12-18T04:06:47;9.70;99.90
31725;DHT22;18306;40.960;14.836;2022-12-18T04:09:19;9.70;99.90
31725;DHT22;18306;40.960;14.836;2022-12-18T04:11:47;9.70;99.90
31725;DHT22;18306;40.960;14.836;2022-12-18T04:14:16;9.70;99.90
31725;DHT22;18306;40.960;14.836;2022-12-18T04:16:43;9.70;99.90
31725;DHT22;18306;40.960;14.836;2022-12-18T04:19:14;9.70;99.90
31725;DHT22;18306;40.960;14.836;2022-12-18T04:21:43;9.80;99.90
31725;DHT22;18306;40.960;14.836;2022-12-18T04:24:12;9.80;99.90
31725;DHT22;18306;40.960;14.836;2022-12-18T04:26:47;9.90;99.90
31725;DHT22;18306;40.960;14.836;2022-12-18T04:29:17;9.90;99.90
31725;DHT22;18306;40.960;14.836;2022-12-18T04:31:44;9.90;99.90
31725;DHT22;18306;40.960;14.836;2022-12-18T04:34:12;10.00;99.90
31725;DHT22;18306;40.960;14.836;2022-12-18T04:36:47;10.10;99.90
31725;DHT22;18306;40.960;14.836;2022-12-18T04:39:33;10.10;99.90
31725;DHT22;18306;40.960;14.836;2022-12-18T04:42:06;10.10;99.90
31725;DHT22;18306;40.960;14.836;2022-12-18T04:44:34;10.10;99.90
31725;DHT22;18306;40.960;14.836;2022-12-18T04:47:02;10.10;99.90
31725;DHT22;18306;40.960;14.836;2022-12-18T04:49:30;10.10;99.90
31725;DHT22;18306;40.960;14.836;2022-12-18T04:51:56;10.10;99.90
31725;DHT22;18306;40.960;14.836;2022-12-18T04:54:24;10.20;99.90
31725;DHT22;18306;40.960;14.836;2022-12-18T04:56:51;10.20;99.90
31725;DHT22;18306;40.960;14.836;2022-12-18T04:59:18;10.30;99.90
31725;DHT22;18306;40.960;14.836;2022-12-18T05:01:52;10.30;99.90
31725;DHT22;18306;40.960;14.836;2022-12-18T05:04:42;10.40;99.90
31725;DHT22;18306;40.960;14.836;2022-12-18T05:07:26;10.50;99.90
31725;DHT22;18306;40.960;14.836;2022-12-18T05:10:11;10.60;99.90
31725;DHT22;18306;40.960;14.836;2022-12-18T05:12:52;10.70;99.90
31725;DHT22;18306;40.960;14.836;2022-12-18T05:15:42;10.70;99.90
31725;DHT22;18306;40.960;14.836;2022-12-18T05:18:17;10.80;99.90
31725;DHT22;18306;40.960;14.836;2022-12-18T05:20:44;10.80;99.90
31725;DHT22;18306;40.960;14.836;2022-12-18T05:23:12;10.90;99.90
31725;DHT22;18306;40.960;14.836;2022-12-18T05:25:38;10.90;99.90
31725;DHT22;18306;40.960;14.836;2022-12-18T05:28:06;10.90;99.90
31725;DHT22;18306;40.960;14.836;2022-12-18T05:30:33;10.90;99.90
31725;DHT22;18306;40.960;14.836;2022-12-18T05:33:00;10.90;99.90
31725;DHT22;18306;40.960;14.836;2022-12-18T05:35:27;11.00;99.90
31725;DHT22;18306;40.960;14.836;2022-12-18T05:37:54;11.00;99.90
31725;DHT22;18306;40.960;14.836;2022-12-18T05:40:21;11.00;99.90
31725;DHT22;18306;40.960;14.836;2022-12-18T05:42:48;11.10;99.90
31725;DHT22;18306;40.960;14.836;2022-12-18T05:45:15;11.00;99.90
31725;DHT22;18306;40.960;14.836;2022-12-18T05:47:42;11.00;99.90
31725;DHT22;18306;40.960;14.836;2022-12-18T05:50:09;11.00;99.90
31725;DHT22;18306;40.960;14.836;2022-12-18T05:52:51;11.10;99.90
31725;DHT22;18306;40.960;14.836;2022-12-18T05:55:19;11.10;99.90
31725;DHT22;18306;40.960;14.836;2022-12-18T05:57:45;11.10;99.90
31725;DHT22;18306;40.960;14.836;2022-12-18T06:00:19;11.10;99.90
31725;DHT22;18306;40.960;14.836;2022-12-18T06:02:47;11.10;99.90
31725;DHT22;18306;40.960;14.836;2022-12-18T06:05:16;11.10;99.90
31725;DHT22;18306;40.960;14.836;2022-12-18T06:07:50;11.10;99.90
31725;DHT22;18306;40.960;14.836;2022-12-18T06:10:18;11.00;99.90
31725;DHT22;18306;40.960;14.836;2022-12-18T06:12:45;10.90;99.90
31725;DHT22;18306;40.960;14.836;2022-12-18T06:15:12;10.90;99.90
31725;DHT22;18306;40.960;14.836;2022-12-18T06:17:47;10.80;99.90
31725;DHT22;18306;40.960;14.836;2022-12-18T06:20:14;10.80;99.90
31725;DHT22;18306;40.960;14.836;2022-12-18T06:22:41;10.80;99.90
31725;DHT22;18306;40.960;14.836;2022-12-18T06:25:08;10.70;99.90
31725;DHT22;18306;40.960;14.836;2022-12-18T06:27:35;10.70;99.90
31725;DHT22;18306;40.960;14.836;2022-12-18T06:30:09;10.70;99.90
31725;DHT22;18306;40.960;14.836;2022-12-18T06:32:37;10.60;99.90
31725;DHT22;18306;40.960;14.836;2022-12-18T06:35:04;10.60;99.90
31725;DHT22;18306;40.960;14.836;2022-12-18T06:37:31;10.50;99.90
31725;DHT22;18306;40.960;14.836;2022-12-18T06:39:59;10.60;99.90
31725;DHT22;18306;40.960;14.836;2022-12-18T06:42:28;10.00;99.90
31725;DHT22;18306;40.960;14.836;2022-12-18T06:44:56;10.70;99.90
31725;DHT22;18306;40.960;14.836;2022-12-18T06:47:23;10.70;99.90
31725;DHT22;18306;40.960;14.836;2022-12-18T06:49:50;10.80;99.90
31725;DHT22;18306;40.960;14.836;2022-12-18T06:52:26;10.80;99.90
31725;DHT22;18306;40.960;14.836;2022-12-18T06:54:53;10.80;99.90
31725;DHT22;18306;40.960;14.836;2022-12-18T06:57:20;10.80;99.90
31725;DHT22;18306;40.960;14.836;2022-12-18T06:59:47;10.70;99.90
31725;DHT22;18306;40.960;14.836;2022-12-18T07:02:14;10.60;99.90
31725;DHT22;18306;40.960;14.836;2022-12-18T07:04:41;10.50;99.90
31725;DHT22;18306;40.960;14.836;2022-12-18T07:07:08;10.50;99.90
31725;DHT22;18306;40.960;14.836;2022-12-18T07:09:35;10.50;99.90
31725;DHT22;18306;40.960;14.836;2022-12-18T07:12:02;10.60;99.90
31725;DHT22;18306;40.960;14.836;2022-12-18T07:14:31;10.70;99.90
31725;DHT22;18306;40.960;14.836;2022-12-18T07:16:58;10.80;99.90
31725;DHT22;18306;40.960;14.836;2022-12-18T07:19:25;10.90;99.90
31725;DHT22;18306;40.960;14.836;2022-12-18T07:21:52;11.00;99.90
31725;DHT22;18306;40.960;14.836;2022-12-18T07:24:19;11.10;99.90
31725;DHT22;18306;40.960;14.836;2022-12-18T07:26:47;11.00;99.90
31725;DHT22;18306;40.960;14.836;2022-12-18T07:29:14;11.10;99.90
31725;DHT22;18306;40.960;14.836;2022-12-18T07:31:41;11.10;99.90
31725;DHT22;18306;40.960;14.836;2022-12-18T07:34:12;11.00;99.90
31725;DHT22;18306;40.960;14.836;2022-12-18T07:36:40;11.00;99.90
31725;DHT22;18306;40.960;14.836;2022-12-18T07:39:07;11.10;99.90
31725;DHT22;18306;40.960;14.836;2022-12-18T07:41:34;11.10;99.90
31725;DHT22;18306;40.960;14.836;2022-12-18T07:44:12;11.10;99.90
31725;DHT22;18306;40.960;14.836;2022-12-18T07:46:43;11.20;99.90
31725;DHT22;18306;40.960;14.836;2022-12-18T07:49:19;11.20;99.90
31725;DHT22;18306;40.960;14.836;2022-12-18T07:51:46;11.20;99.90
31725;DHT22;18306;40.960;14.836;2022-12-18T07:54:15;11.30;99.90
31725;DHT22;18306;40.960;14.836;2022-12-18T07:56:42;11.40;99.90
31725;DHT22;18306;40.960;14.836;2022-12-18T07:59:09;11.50;99.90
31725;DHT22;18306;40.960;14.836;2022-12-18T08:01:36;11.50;99.90
31725;DHT22;18306;40.960;14.836;2022-12-18T08:04:03;11.50;99.90
31725;DHT22;18306;40.960;14.836;2022-12-18T08:06:30;11.60;99.90
31725;DHT22;18306;40.960;14.836;2022-12-18T08:08:58;11.70;99.90
31725;DHT22;18306;40.960;14.836;2022-12-18T08:11:26;11.80;99.90
31725;DHT22;18306;40.960;14.836;2022-12-18T08:13:54;11.90;99.90
31725;DHT22;18306;40.960;14.836;2022-12-18T08:16:22;12.00;99.90
31725;DHT22;18306;40.960;14.836;2022-12-18T08:18:49;12.10;99.90
31725;DHT22;18306;40.960;14.836;2022-12-18T08:21:22;12.10;99.90
31725;DHT22;18306;40.960;14.836;2022-12-18T08:23:50;12.10;99.90
31725;DHT22;18306;40.960;14.836;2022-12-18T08:26:18;12.10;99.90
31725;DHT22;18306;40.960;14.836;2022-12-18T08:28:45;12.30;99.90
31725;DHT22;18306;40.960;14.836;2022-12-18T08:31:12;12.30;99.90
31725;DHT22;18306;40.960;14.836;2022-12-18T08:33:40;12.30;99.90
31725;DHT22;18306;40.960;14.836;2022-12-18T08:36:09;12.30;99.90
31725;DHT22;18306;40.960;14.836;2022-12-18T08:38:36;12.40;99.90
31725;DHT22;18306;40.960;14.836;2022-12-18T08:41:06;12.50;99.90
31725;DHT22;18306;40.960;14.836;2022-12-18T08:43:34;12.50;99.90
31725;DHT22;18306;40.960;14.836;2022-12-18T08:46:30;12.60;99.90
31725;DHT22;18306;40.960;14.836;2022-12-18T08:48:57;12.70;99.90
31725;DHT22;18306;40.960;14.836;2022-12-18T08:51:24;12.60;99.90
31725;DHT22;18306;40.960;14.836;2022-12-18T08:53:57;12.60;99.90
31725;DHT22;18306;40.960;14.836;2022-12-18T08:56:35;12.40;99.90
31725;DHT22;18306;40.960;14.836;2022-12-18T08:59:02;12.40;99.90
31725;DHT22;18306;40.960;14.836;2022-12-18T09:01:31;12.40;99.90
31725;DHT22;18306;40.960;14.836;2022-12-18T09:04:10;12.20;99.90
31725;DHT22;18306;40.960;14.836;2022-12-18T09:06:37;12.10;99.90
31725;DHT22;18306;40.960;14.836;2022-12-18T09:09:05;12.10;99.90
31725;DHT22;18306;40.960;14.836;2022-12-18T09:11:33;12.10;99.90
31725;DHT22;18306;40.960;14.836;2022-12-18T09:14:01;11.90;99.90
31725;DHT22;18306;40.960;14.836;2022-12-18T09:16:29;11.90;99.90
31725;DHT22;18306;40.960;14.836;2022-12-18T09:18:57;12.00;99.90
31725;DHT22;18306;40.960;14.836;2022-12-18T09:21:30;12.10;99.90
31725;DHT22;18306;40.960;14.836;2022-12-18T09:23:58;12.30;99.90
31725;DHT22;18306;40.960;14.836;2022-12-18T09:26:26;12.30;99.90
31725;DHT22;18306;40.960;14.836;2022-12-18T09:28:54;12.40;99.90
31725;DHT22;18306;40.960;14.836;2022-12-18T09:31:23;12.50;99.90
31725;DHT22;18306;40.960;14.836;2022-12-18T09:33:51;12.50;99.90
31725;DHT22;18306;40.960;14.836;2022-12-18T09:36:19;12.50;99.90
31725;DHT22;18306;40.960;14.836;2022-12-18T09:38:46;12.60;99.90
31725;DHT22;18306;40.960;14.836;2022-12-18T09:46:55;12.80;99.90
31725;DHT22;18306;40.960;14.836;2022-12-18T09:49:28;12.90;99.90
31725;DHT22;18306;40.960;14.836;2022-12-18T09:52:16;13.00;99.90
31725;DHT22;18306;40.960;14.836;2022-12-18T09:55:03;13.00;99.90
31725;DHT22;18306;40.960;14.836;2022-12-18T09:57:33;13.00;99.90
31725;DHT22;18306;40.960;14.836;2022-12-18T10:00:28;13.20;99.90
31725;DHT22;18306;40.960;14.836;2022-12-18T10:03:13;13.20;99.90
31725;DHT22;18306;40.960;14.836;2022-12-18T10:15:03;13.60;99.90
31725;DHT22;18306;40.960;14.836;2022-12-18T10:20:34;13.70;99.90
31725;DHT22;18306;40.960;14.836;2022-12-18T10:23:55;13.70;99.90
31725;DHT22;18306;40.960;14.836;2022-12-18T10:26:09;13.70;99.90
31725;DHT22;18306;40.960;14.836;2022-12-18T10:28:39;13.80;99.90
31725;DHT22;18306;40.960;14.836;2022-12-18T10:31:16;13.90;99.90
31725;DHT22;18306;40.960;14.836;2022-12-18T10:33:44;14.10;99.90
31725;DHT22;18306;40.960;14.836;2022-12-18T10:36:12;14.20;99.90
31725;DHT22;18306;40.960;14.836;2022-12-18T10:38:39;14.30;99.90
31725;DHT22;18306;40.960;14.836;2022-12-18T10:41:24;14.20;99.90
31725;DHT22;18306;40.960;14.836;2022-12-18T10:44:19;14.20;99.90
31725;DHT22;18306;40.960;14.836;2022-12-18T10:46:49;14.30;99.90
31725;DHT22;18306;40.960;14.836;2022-12-18T10:49:25;14.30;99.90
31725;DHT22;18306;40.960;14.836;2022-12-18T10:52:17;14.10;99.90
31725;DHT22;18306;40.960;14.836;2022-12-18T10:54:59;14.20;99.90
31725;DHT22;18306;40.960;14.836;2022-12-18T10:57:38;14.20;99.90
31725;DHT22;18306;40.960;14.836;2022-12-18T11:00:21;14.30;99.90
31725;DHT22;18306;40.960;14.836;2022-12-18T11:02:49;14.20;99.90
31725;DHT22;18306;40.960;14.836;2022-12-18T11:05:29;14.40;99.90
31725;DHT22;18306;40.960;14.836;2022-12-18T11:07:58;14.50;99.90
31725;DHT22;18306;40.960;14.836;2022-12-18T11:10:31;14.50;99.90
31725;DHT22;18306;40.960;14.836;2022-12-18T11:13:19;14.60;99.90
31725;DHT22;18306;40.960;14.836;2022-12-18T11:15:48;14.60;99.90
31725;DHT22;18306;40.960;14.836;2022-12-18T11:18:33;14.70;99.90
31725;DHT22;18306;40.960;14.836;2022-12-18T11:21:38;14.70;99.90
31725;DHT22;18306;40.960;14.836;2022-12-18T11:24:20;14.90;99.90
31725;DHT22;18306;40.960;14.836;2022-12-18T11:26:49;14.80;99.90
31725;DHT22;18306;40.960;14.836;2022-12-18T11:29:24;14.80;99.90
31725;DHT22;18306;40.960;14.836;2022-12-18T11:32:33;14.80;99.90
31725;DHT22;18306;40.960;14.836;2022-12-18T11:35:21;14.80;99.90
31725;DHT22;18306;40.960;14.836;2022-12-18T11:37:59;14.90;99.90
31725;DHT22;18306;40.960;14.836;2022-12-18T11:40:36;15.00;99.90
31725;DHT22;18306;40.960;14.836;2022-12-18T11:43:19;15.00;99.90
31725;DHT22;18306;40.960;14.836;2022-12-18T11:46:13;14.90;99.90
31725;DHT22;18306;40.960;14.836;2022-12-18T11:52:15;15.00;99.90
31725;DHT22;18306;40.960;14.836;2022-12-18T11:54:43;15.00;99.90
31725;DHT22;18306;40.960;14.836;2022-12-18T12:00:15;14.90;99.90
31725;DHT22;18306;40.960;14.836;2022-12-18T12:05:31;15.20;99.90
31725;DHT22;18306;40.960;14.836;2022-12-18T12:08:30;15.30;99.90
31725;DHT22;18306;40.960;14.836;2022-12-18T12:16:59;15.20;99.90
31725;DHT22;18306;40.960;14.836;2022-12-18T12:20:08;15.30;99.90
31725;DHT22;18306;40.960;14.836;2022-12-18T12:23:00;15.40;99.90
31725;DHT22;18306;40.960;14.836;2022-12-18T12:25:49;15.40;99.90
31725;DHT22;18306;40.960;14.836;2022-12-18T12:35:08;15.50;99.90
31725;DHT22;18306;40.960;14.836;2022-12-18T12:37:44;15.70;99.90
31725;DHT22;18306;40.960;14.836;2022-12-18T12:40:19;15.50;99.90
31725;DHT22;18306;40.960;14.836;2022-12-18T12:43:02;15.60;99.90
31725;DHT22;18306;40.960;14.836;2022-12-18T12:46:23;15.50;99.90
31725;DHT22;18306;40.960;14.836;2022-12-18T12:48:51;15.40;99.90
31725;DHT22;18306;40.960;14.836;2022-12-18T12:51:21;15.60;99.90
31725;DHT22;18306;40.960;14.836;2022-12-18T12:53:50;15.50;99.90
31725;DHT22;18306;40.960;14.836;2022-12-18T12:56:20;15.60;99.90
31725;DHT22;18306;40.960;14.836;2022-12-18T13:01:49;15.30;99.90
31725;DHT22;18306;40.960;14.836;2022-12-18T13:04:35;15.20;99.90
31725;DHT22;18306;40.960;14.836;2022-12-18T13:07:16;15.10;99.90
31725;DHT22;18306;40.960;14.836;2022-12-18T13:13:01;15.30;99.90
31725;DHT22;18306;40.960;14.836;2022-12-18T13:15:31;15.30;99.90
31725;DHT22;18306;40.960;14.836;2022-12-18T13:18:21;15.10;99.90
31725;DHT22;18306;40.960;14.836;2022-12-18T13:21:01;15.10;99.90
31725;DHT22;18306;40.960;14.836;2022-12-18T13:23:35;15.30;99.90
31725;DHT22;18306;40.960;14.836;2022-12-18T13:28:52;15.80;99.90
31725;DHT22;18306;40.960;14.836;2022-12-18T13:34:16;15.60;99.90
31725;DHT22;18306;40.960;14.836;2022-12-18T13:36:46;15.80;99.90
31725;DHT22;18306;40.960;14.836;2022-12-18T13:41:42;16.00;99.90
31725;DHT22;18306;40.960;14.836;2022-12-18T13:46:51;16.00;99.90
31725;DHT22;18306;40.960;14.836;2022-12-18T13:49:38;16.00;99.90
31725;DHT22;18306;40.960;14.836;2022-12-18T13:52:21;15.70;99.90
31725;DHT22;18306;40.960;14.836;2022-12-18T13:54:54;15.40;99.90
31725;DHT22;18306;40.960;14.836;2022-12-18T13:57:34;15.30;99.90
31725;DHT22;18306;40.960;14.836;2022-12-18T14:02:53;15.30;99.90
31725;DHT22;18306;40.960;14.836;2022-12-18T14:07:54;15.30;99.90
31725;DHT22;18306;40.960;14.836;2022-12-18T14:10:22;15.40;99.90
31725;DHT22;18306;40.960;14.836;2022-12-18T14:12:50;15.40;99.90
31725;DHT22;18306;40.960;14.836;2022-12-18T14:20:45;15.70;99.90
31725;DHT22;18306;40.960;14.836;2022-12-18T14:23:36;15.70;99.90
31725;DHT22;18306;40.960;14.836;2022-12-18T14:26:26;15.80;99.90
31725;DHT22;18306;40.960;14.836;2022-12-18T14:28:56;16.00;99.90
31725;DHT22;18306;40.960;14.836;2022-12-18T14:31:30;16.00;99.90
31725;DHT22;18306;40.960;14.836;2022-12-18T14:33:57;16.10;99.90
31725;DHT22;18306;40.960;14.836;2022-12-18T14:36:27;15.90;99.90
31725;DHT22;18306;40.960;14.836;2022-12-18T14:39:16;15.80;99.90
31725;DHT22;18306;40.960;14.836;2022-12-18T14:41:44;15.80;99.90
31725;DHT22;18306;40.960;14.836;2022-12-18T14:44:12;15.80;99.90
31725;DHT22;18306;40.960;14.836;2022-12-18T14:46:41;16.00;99.90
31725;DHT22;18306;40.960;14.836;2022-12-18T14:49:20;16.10;99.90
31725;DHT22;18306;40.960;14.836;2022-12-18T14:51:52;15.90;99.90
31725;DHT22;18306;40.960;14.836;2022-12-18T14:54:21;15.80;99.90
31725;DHT22;18306;40.960;14.836;2022-12-18T14:57:34;15.80;99.90
31725;DHT22;18306;40.960;14.836;2022-12-18T14:59:41;15.70;99.90
31725;DHT22;18306;40.960;14.836;2022-12-18T15:02:15;15.70;99.90
31725;DHT22;18306;40.960;14.836;2022-12-18T15:04:45;15.80;99.90
31725;DHT22;18306;40.960;14.836;2022-12-18T15:09:41;15.90;99.90
31725;DHT22;18306;40.960;14.836;2022-12-18T15:12:34;15.80;99.90
31725;DHT22;18306;40.960;14.836;2022-12-18T15:15:03;15.80;99.90
31725;DHT22;18306;40.960;14.836;2022-12-18T15:17:31;15.80;99.90
31725;DHT22;18306;40.960;14.836;2022-12-18T15:20:03;15.90;99.90
31725;DHT22;18306;40.960;14.836;2022-12-18T15:22:36;15.80;99.90
31725;DHT22;18306;40.960;14.836;2022-12-18T15:25:24;15.90;99.90
31725;DHT22;18306;40.960;14.836;2022-12-18T15:27:54;15.90;99.90
31725;DHT22;18306;40.960;14.836;2022-12-18T15:30:23;16.00;99.90
31725;DHT22;18306;40.960;14.836;2022-12-18T15:32:51;16.00;99.90
31725;DHT22;18306;40.960;14.836;2022-12-18T15:35:22;16.10;99.90
31725;DHT22;18306;40.960;14.836;2022-12-18T15:37:50;16.10;99.90
31725;DHT22;18306;40.960;14.836;2022-12-18T15:40:20;16.00;99.90
31725;DHT22;18306;40.960;14.836;2022-12-18T15:42:48;16.00;99.90
31725;DHT22;18306;40.960;14.836;2022-12-18T15:45:33;16.00;99.90
31725;DHT22;18306;40.960;14.836;2022-12-18T15:48:00;16.10;99.90
31725;DHT22;18306;40.960;14.836;2022-12-18T15:50:28;16.00;99.90
31725;DHT22;18306;40.960;14.836;2022-12-18T15:52:55;16.00;99.90
31725;DHT22;18306;40.960;14.836;2022-12-18T15:55:23;16.10;99.90
31725;DHT22;18306;40.960;14.836;2022-12-18T15:58:10;16.10;99.90
31725;DHT22;18306;40.960;14.836;2022-12-18T16:00:39;16.10;99.90
31725;DHT22;18306;40.960;14.836;2022-12-18T16:03:08;16.10;99.90
31725;DHT22;18306;40.960;14.836;2022-12-18T16:05:36;16.10;99.90
31725;DHT22;18306;40.960;14.836;2022-12-18T16:08:03;16.10;99.90
31725;DHT22;18306;40.960;14.836;2022-12-18T16:10:30;16.10;99.90
31725;DHT22;18306;40.960;14.836;2022-12-18T16:12:58;16.10;99.90
31725;DHT22;18306;40.960;14.836;2022-12-18T16:15:25;16.20;99.90
31725;DHT22;18306;40.960;14.836;2022-12-18T16:17:53;16.10;99.90
31725;DHT22;18306;40.960;14.836;2022-12-18T16:20:21;16.10;99.90
31725;DHT22;18306;40.960;14.836;2022-12-18T16:22:51;16.20;99.90
31725;DHT22;18306;40.960;14.836;2022-12-18T16:25:22;16.10;99.90
31725;DHT22;18306;40.960;14.836;2022-12-18T16:27:49;16.10;99.90
31725;DHT22;18306;40.960;14.836;2022-12-18T16:30:19;16.10;99.90
31725;DHT22;18306;40.960;14.836;2022-12-18T16:32:48;15.90;99.90
31725;DHT22;18306;40.960;14.836;2022-12-18T16:35:19;16.00;99.90
31725;DHT22;18306;40.960;14.836;2022-12-18T16:37:49;16.00;99.90
31725;DHT22;18306;40.960;14.836;2022-12-18T16:40:17;15.90;99.90
31725;DHT22;18306;40.960;14.836;2022-12-18T16:42:45;15.80;99.90
31725;DHT22;18306;40.960;14.836;2022-12-18T16:45:15;15.80;99.90
31725;DHT22;18306;40.960;14.836;2022-12-18T16:47:48;15.70;99.90
31725;DHT22;18306;40.960;14.836;2022-12-18T16:50:15;15.60;99.90
31725;DHT22;18306;40.960;14.836;2022-12-18T16:52:43;15.60;99.90
31725;DHT22;18306;40.960;14.836;2022-12-18T16:55:10;15.70;99.90
31725;DHT22;18306;40.960;14.836;2022-12-18T16:57:38;15.60;99.90
31725;DHT22;18306;40.960;14.836;2022-12-18T17:00:09;15.50;99.90
31725;DHT22;18306;40.960;14.836;2022-12-18T17:02:38;15.50;99.90
31725;DHT22;18306;40.960;14.836;2022-12-18T17:05:06;15.50;99.90
31725;DHT22;18306;40.960;14.836;2022-12-18T17:07:34;15.50;99.90
31725;DHT22;18306;40.960;14.836;2022-12-18T17:10:01;15.40;99.90
31725;DHT22;18306;40.960;14.836;2022-12-18T17:12:28;15.40;99.90
31725;DHT22;18306;40.960;14.836;2022-12-18T17:14:55;15.40;99.90
31725;DHT22;18306;40.960;14.836;2022-12-18T17:17:22;15.50;99.90
31725;DHT22;18306;40.960;14.836;2022-12-18T17:19:50;15.40;99.90